sensor_id;sensor_type;location;lat;lon;timestamp;P1;durP1;ratioP1;P2;durP2;ratioP2
15528;SDS011;7866;52.280;9.500;2023-10-31T00:03:36;2.35;;;1.55;;
15528;SDS011;7866;52.280;9.500;2023-10-31T00:08:38;2.10;;;1.90;;
15528;SDS011;7866;52.280;9.500;2023-10-31T00:13:40;1.80;;;1.70;;
15528;SDS011;7866;52.280;9.500;2023-10-31T00:18:43;2.10;;;1.60;;
15528;SDS011;7866;52.280;9.500;2023-10-31T00:23:46;1.70;;;1.60;;
15528;SDS011;7866;52.280;9.500;2023-10-31T00:28:48;1.75;;;1.60;;
15528;SDS011;7866;52.280;9.500;2023-10-31T00:33:50;4.57;;;1.88;;
15528;SDS011;7866;52.280;9.500;2023-10-31T00:38:53;2.55;;;2.22;;
15528;SDS011;7866;52.280;9.500;2023-10-31T00:43:54;1.83;;;1.73;;
15528;SDS011;7866;52.280;9.500;2023-10-31T00:48:56;2.63;;;2.10;;
15528;SDS011;7866;52.280;9.500;2023-10-31T00:53:59;2.17;;;1.98;;
15528;SDS011;7866;52.280;9.500;2023-10-31T00:59:01;1.70;;;1.60;;
15528;SDS011;7866;52.280;9.500;2023-10-31T01:04:02;3.17;;;2.20;;
15528;SDS011;7866;52.280;9.500;2023-10-31T01:09:06;2.67;;;2.10;;
15528;SDS011;7866;52.280;9.500;2023-10-31T01:14:07;3.45;;;2.20;;
15528;SDS011;7866;52.280;9.500;2023-10-31T01:19:09;2.47;;;2.08;;
15528;SDS011;7866;52.280;9.500;2023-10-31T01:24:12;3.08;;;1.80;;
15528;SDS011;7866;52.280;9.500;2023-10-31T01:29:13;2.17;;;1.73;;
15528;SDS011;7866;52.280;9.500;2023-10-31T01:34:15;2.13;;;1.92;;
15528;SDS011;7866;52.280;9.500;2023-10-31T01:39:18;1.80;;;1.70;;
15528;SDS011;7866;52.280;9.500;2023-10-31T01:44:20;2.30;;;1.85;;
15528;SDS011;7866;52.280;9.500;2023-10-31T01:49:21;2.10;;;1.90;;
15528;SDS011;7866;52.280;9.500;2023-10-31T01:54:24;3.10;;;1.90;;
15528;SDS011;7866;52.280;9.500;2023-10-31T01:59:27;1.98;;;1.88;;
15528;SDS011;7866;52.280;9.500;2023-10-31T02:04:29;2.05;;;1.80;;
15528;SDS011;7866;52.280;9.500;2023-10-31T02:09:32;2.83;;;2.15;;
15528;SDS011;7866;52.280;9.500;2023-10-31T02:14:34;2.03;;;1.92;;
15528;SDS011;7866;52.280;9.500;2023-10-31T02:19:36;1.90;;;1.80;;
15528;SDS011;7866;52.280;9.500;2023-10-31T02:24:39;1.65;;;1.55;;
15528;SDS011;7866;52.280;9.500;2023-10-31T02:29:40;1.50;;;1.40;;
15528;SDS011;7866;52.280;9.500;2023-10-31T02:34:44;2.17;;;1.70;;
15528;SDS011;7866;52.280;9.500;2023-10-31T02:39:47;1.60;;;1.50;;
15528;SDS011;7866;52.280;9.500;2023-10-31T02:44:48;1.20;;;1.20;;
15528;SDS011;7866;52.280;9.500;2023-10-31T02:49:50;2.33;;;1.20;;
15528;SDS011;7866;52.280;9.500;2023-10-31T02:54:53;1.33;;;1.27;;
15528;SDS011;7866;52.280;9.500;2023-10-31T02:59:55;1.45;;;1.25;;
15528;SDS011;7866;52.280;9.500;2023-10-31T03:04:56;1.45;;;1.35;;
15528;SDS011;7866;52.280;9.500;2023-10-31T03:09:59;1.33;;;1.23;;
15528;SDS011;7866;52.280;9.500;2023-10-31T03:15:01;1.50;;;1.50;;
15528;SDS011;7866;52.280;9.500;2023-10-31T03:20:04;1.92;;;1.83;;
15528;SDS011;7866;52.280;9.500;2023-10-31T03:25:07;2.33;;;2.22;;
15528;SDS011;7866;52.280;9.500;2023-10-31T03:30:10;2.45;;;2.35;;
15528;SDS011;7866;52.280;9.500;2023-10-31T03:35:12;2.38;;;2.22;;
15528;SDS011;7866;52.280;9.500;2023-10-31T03:40:15;2.30;;;2.20;;
15528;SDS011;7866;52.280;9.500;2023-10-31T03:45:17;1.95;;;1.85;;
15528;SDS011;7866;52.280;9.500;2023-10-31T03:50:18;2.10;;;2.00;;
15528;SDS011;7866;52.280;9.500;2023-10-31T03:55:21;1.77;;;1.40;;
15528;SDS011;7866;52.280;9.500;2023-10-31T04:00:23;1.63;;;1.53;;
15528;SDS011;7866;52.280;9.500;2023-10-31T04:05:25;1.10;;;1.10;;
15528;SDS011;7866;52.280;9.500;2023-10-31T04:10:28;1.50;;;1.20;;
15528;SDS011;7866;52.280;9.500;2023-10-31T04:15:29;0.90;;;0.90;;
15528;SDS011;7866;52.280;9.500;2023-10-31T04:20:31;1.13;;;1.13;;
15528;SDS011;7866;52.280;9.500;2023-10-31T04:25:34;0.63;;;0.63;;
15528;SDS011;7866;52.280;9.500;2023-10-31T04:30:35;0.67;;;0.67;;
15528;SDS011;7866;52.280;9.500;2023-10-31T04:35:37;0.40;;;0.40;;
15528;SDS011;7866;52.280;9.500;2023-10-31T04:40:40;0.60;;;0.40;;
15528;SDS011;7866;52.280;9.500;2023-10-31T04:45:42;0.30;;;0.20;;
15528;SDS011;7866;52.280;9.500;2023-10-31T04:50:44;0.50;;;0.30;;
15528;SDS011;7866;52.280;9.500;2023-10-31T04:55:47;0.70;;;0.40;;
15528;SDS011;7866;52.280;9.500;2023-10-31T05:00:48;0.30;;;0.27;;
15528;SDS011;7866;52.280;9.500;2023-10-31T05:05:50;0.37;;;0.37;;
15528;SDS011;7866;52.280;9.500;2023-10-31T05:10:53;1.70;;;0.40;;
15528;SDS011;7866;52.280;9.500;2023-10-31T05:15:55;0.60;;;0.40;;
15528;SDS011;7866;52.280;9.500;2023-10-31T05:20:57;0.77;;;0.53;;
15528;SDS011;7866;52.280;9.500;2023-10-31T05:26:00;2.30;;;0.47;;
15528;SDS011;7866;52.280;9.500;2023-10-31T05:31:02;0.33;;;0.33;;
15528;SDS011;7866;52.280;9.500;2023-10-31T05:36:04;0.80;;;0.67;;
15528;SDS011;7866;52.280;9.500;2023-10-31T05:41:09;1.87;;;0.57;;
15528;SDS011;7866;52.280;9.500;2023-10-31T05:46:10;0.97;;;0.60;;
15528;SDS011;7866;52.280;9.500;2023-10-31T05:51:14;0.87;;;0.57;;
15528;SDS011;7866;52.280;9.500;2023-10-31T05:56:18;1.60;;;0.90;;
15528;SDS011;7866;52.280;9.500;2023-10-31T06:01:19;1.20;;;0.90;;
15528;SDS011;7866;52.280;9.500;2023-10-31T06:06:21;1.47;;;1.07;;
15528;SDS011;7866;52.280;9.500;2023-10-31T06:11:24;1.43;;;1.33;;
15528;SDS011;7866;52.280;9.500;2023-10-31T06:16:26;1.50;;;1.33;;
15528;SDS011;7866;52.280;9.500;2023-10-31T06:21:27;1.77;;;1.47;;
15528;SDS011;7866;52.280;9.500;2023-10-31T06:26:30;2.67;;;1.70;;
15528;SDS011;7866;52.280;9.500;2023-10-31T06:31:32;2.40;;;1.53;;
15528;SDS011;7866;52.280;9.500;2023-10-31T06:36:34;4.43;;;1.90;;
15528;SDS011;7866;52.280;9.500;2023-10-31T06:41:36;4.00;;;1.73;;
15528;SDS011;7866;52.280;9.500;2023-10-31T06:46:38;1.50;;;1.40;;
15528;SDS011;7866;52.280;9.500;2023-10-31T06:51:40;2.60;;;1.90;;
15528;SDS011;7866;52.280;9.500;2023-10-31T06:56:43;1.60;;;1.30;;
15528;SDS011;7866;52.280;9.500;2023-10-31T07:01:44;3.30;;;1.80;;
15528;SDS011;7866;52.280;9.500;2023-10-31T07:06:46;1.80;;;1.70;;
15528;SDS011;7866;52.280;9.500;2023-10-31T07:11:49;1.60;;;1.50;;
15528;SDS011;7866;52.280;9.500;2023-10-31T07:16:51;2.27;;;1.60;;
15528;SDS011;7866;52.280;9.500;2023-10-31T07:21:52;1.53;;;1.43;;
15528;SDS011;7866;52.280;9.500;2023-10-31T07:26:55;1.50;;;1.40;;
15528;SDS011;7866;52.280;9.500;2023-10-31T07:31:57;1.50;;;1.40;;
15528;SDS011;7866;52.280;9.500;2023-10-31T07:36:59;1.40;;;1.30;;
15528;SDS011;7866;52.280;9.500;2023-10-31T07:42:02;1.47;;;1.30;;
15528;SDS011;7866;52.280;9.500;2023-10-31T07:47:03;1.17;;;1.03;;
15528;SDS011;7866;52.280;9.500;2023-10-31T07:52:05;0.90;;;0.90;;
15528;SDS011;7866;52.280;9.500;2023-10-31T07:57:08;0.73;;;0.60;;
15528;SDS011;7866;52.280;9.500;2023-10-31T08:02:10;0.60;;;0.60;;
15528;SDS011;7866;52.280;9.500;2023-10-31T08:07:14;0.50;;;0.50;;
15528;SDS011;7866;52.280;9.500;2023-10-31T08:12:17;0.50;;;0.50;;
15528;SDS011;7866;52.280;9.500;2023-10-31T08:17:18;0.60;;;0.60;;
15528;SDS011;7866;52.280;9.500;2023-10-31T08:22:20;0.80;;;0.80;;
15528;SDS011;7866;52.280;9.500;2023-10-31T08:27:23;0.90;;;0.60;;
15528;SDS011;7866;52.280;9.500;2023-10-31T08:32:24;0.90;;;0.70;;
15528;SDS011;7866;52.280;9.500;2023-10-31T08:37:26;1.63;;;1.10;;
15528;SDS011;7866;52.280;9.500;2023-10-31T08:42:29;0.80;;;0.80;;
15528;SDS011;7866;52.280;9.500;2023-10-31T08:47:31;1.10;;;1.00;;
15528;SDS011;7866;52.280;9.500;2023-10-31T08:52:32;1.63;;;0.70;;
15528;SDS011;7866;52.280;9.500;2023-10-31T08:57:35;0.77;;;0.77;;
15528;SDS011;7866;52.280;9.500;2023-10-31T09:02:37;0.80;;;0.80;;
15528;SDS011;7866;52.280;9.500;2023-10-31T09:07:38;1.13;;;0.60;;
15528;SDS011;7866;52.280;9.500;2023-10-31T09:12:42;0.87;;;0.87;;
15528;SDS011;7866;52.280;9.500;2023-10-31T09:17:43;0.67;;;0.67;;
15528;SDS011;7866;52.280;9.500;2023-10-31T09:22:45;0.70;;;0.70;;
15528;SDS011;7866;52.280;9.500;2023-10-31T09:27:48;0.50;;;0.50;;
15528;SDS011;7866;52.280;9.500;2023-10-31T09:32:49;0.43;;;0.43;;
15528;SDS011;7866;52.280;9.500;2023-10-31T09:37:52;0.37;;;0.30;;
15528;SDS011;7866;52.280;9.500;2023-10-31T09:42:55;0.30;;;0.30;;
15528;SDS011;7866;52.280;9.500;2023-10-31T09:47:57;0.43;;;0.23;;
15528;SDS011;7866;52.280;9.500;2023-10-31T09:53:01;0.23;;;0.23;;
15528;SDS011;7866;52.280;9.500;2023-10-31T09:58:07;0.27;;;0.20;;
15528;SDS011;7866;52.280;9.500;2023-10-31T10:03:09;0.50;;;0.50;;
15528;SDS011;7866;52.280;9.500;2023-10-31T10:08:11;0.40;;;0.40;;
15528;SDS011;7866;52.280;9.500;2023-10-31T10:13:14;0.50;;;0.50;;
15528;SDS011;7866;52.280;9.500;2023-10-31T10:18:25;1.03;;;0.50;;
15528;SDS011;7866;52.280;9.500;2023-10-31T10:23:27;0.33;;;0.33;;
15528;SDS011;7866;52.280;9.500;2023-10-31T10:28:30;0.70;;;0.70;;
15528;SDS011;7866;52.280;9.500;2023-10-31T10:33:33;0.90;;;0.67;;
15528;SDS011;7866;52.280;9.500;2023-10-31T10:38:35;1.43;;;0.73;;
15528;SDS011;7866;52.280;9.500;2023-10-31T10:43:39;1.17;;;0.80;;
15528;SDS011;7866;52.280;9.500;2023-10-31T10:48:43;0.70;;;0.70;;
15528;SDS011;7866;52.280;9.500;2023-10-31T10:53:48;0.70;;;0.70;;
15528;SDS011;7866;52.280;9.500;2023-10-31T10:58:55;0.80;;;0.77;;
15528;SDS011;7866;52.280;9.500;2023-10-31T11:04:01;1.33;;;0.90;;
15528;SDS011;7866;52.280;9.500;2023-10-31T11:09:04;1.00;;;1.00;;
15528;SDS011;7866;52.280;9.500;2023-10-31T11:14:08;1.03;;;1.03;;
15528;SDS011;7866;52.280;9.500;2023-10-31T11:19:10;1.17;;;1.07;;
15528;SDS011;7866;52.280;9.500;2023-10-31T11:24:12;1.20;;;1.20;;
15528;SDS011;7866;52.280;9.500;2023-10-31T11:29:15;1.43;;;1.27;;
15528;SDS011;7866;52.280;9.500;2023-10-31T11:34:19;4.10;;;1.90;;
15528;SDS011;7866;52.280;9.500;2023-10-31T11:39:21;2.07;;;1.90;;
15528;SDS011;7866;52.280;9.500;2023-10-31T11:44:27;1.87;;;1.77;;
15528;SDS011;7866;52.280;9.500;2023-10-31T11:54:49;2.20;;;2.00;;
15528;SDS011;7866;52.280;9.500;2023-10-31T11:59:52;2.20;;;2.00;;
15528;SDS011;7866;52.280;9.500;2023-10-31T12:05:06;1.60;;;1.50;;
15528;SDS011;7866;52.280;9.500;2023-10-31T12:10:08;1.90;;;1.80;;
15528;SDS011;7866;52.280;9.500;2023-10-31T12:15:12;3.60;;;2.07;;
15528;SDS011;7866;52.280;9.500;2023-10-31T12:20:14;2.33;;;2.13;;
15528;SDS011;7866;52.280;9.500;2023-10-31T12:25:17;2.30;;;2.20;;
15528;SDS011;7866;52.280;9.500;2023-10-31T12:30:20;3.53;;;2.90;;
15528;SDS011;7866;52.280;9.500;2023-10-31T12:35:23;3.30;;;3.00;;
15528;SDS011;7866;52.280;9.500;2023-10-31T12:40:25;4.77;;;3.10;;
15528;SDS011;7866;52.280;9.500;2023-10-31T12:45:28;5.03;;;3.30;;
15528;SDS011;7866;52.280;9.500;2023-10-31T12:50:31;3.87;;;3.47;;
15528;SDS011;7866;52.280;9.500;2023-10-31T12:55:37;4.73;;;3.57;;
15528;SDS011;7866;52.280;9.500;2023-10-31T13:00:41;3.93;;;3.00;;
15528;SDS011;7866;52.280;9.500;2023-10-31T13:05:42;6.80;;;3.00;;
15528;SDS011;7866;52.280;9.500;2023-10-31T13:10:46;3.00;;;2.80;;
15528;SDS011;7866;52.280;9.500;2023-10-31T13:15:49;2.83;;;2.63;;
15528;SDS011;7866;52.280;9.500;2023-10-31T13:20:50;2.67;;;2.57;;
15528;SDS011;7866;52.280;9.500;2023-10-31T13:25:52;3.87;;;2.93;;
15528;SDS011;7866;52.280;9.500;2023-10-31T13:30:55;3.20;;;2.90;;
15528;SDS011;7866;52.280;9.500;2023-10-31T13:35:56;6.10;;;3.00;;
15528;SDS011;7866;52.280;9.500;2023-10-31T13:40:58;2.53;;;2.33;;
15528;SDS011;7866;52.280;9.500;2023-10-31T13:46:02;3.60;;;3.30;;
15528;SDS011;7866;52.280;9.500;2023-10-31T13:51:04;2.90;;;2.70;;
15528;SDS011;7866;52.280;9.500;2023-10-31T13:56:06;2.83;;;2.53;;
15528;SDS011;7866;52.280;9.500;2023-10-31T14:01:10;3.13;;;2.70;;
15528;SDS011;7866;52.280;9.500;2023-10-31T14:06:11;2.60;;;2.40;;
15528;SDS011;7866;52.280;9.500;2023-10-31T14:11:14;2.60;;;2.40;;
15528;SDS011;7866;52.280;9.500;2023-10-31T14:16:17;2.63;;;2.43;;
15528;SDS011;7866;52.280;9.500;2023-10-31T14:21:18;2.53;;;2.33;;
15528;SDS011;7866;52.280;9.500;2023-10-31T14:26:20;2.30;;;2.10;;
15528;SDS011;7866;52.280;9.500;2023-10-31T14:31:24;2.57;;;2.37;;
15528;SDS011;7866;52.280;9.500;2023-10-31T14:36:25;2.37;;;2.17;;
15528;SDS011;7866;52.280;9.500;2023-10-31T14:41:27;2.50;;;2.20;;
15528;SDS011;7866;52.280;9.500;2023-10-31T14:46:34;3.17;;;2.40;;
15528;SDS011;7866;52.280;9.500;2023-10-31T14:51:36;3.37;;;2.50;;
15528;SDS011;7866;52.280;9.500;2023-10-31T14:56:38;2.83;;;2.40;;
15528;SDS011;7866;52.280;9.500;2023-10-31T15:01:41;3.63;;;2.43;;
15528;SDS011;7866;52.280;9.500;2023-10-31T15:06:43;6.07;;;2.35;;
15528;SDS011;7866;52.280;9.500;2023-10-31T15:11:44;1.53;;;1.43;;
15528;SDS011;7866;52.280;9.500;2023-10-31T15:16:47;0.83;;;0.83;;
15528;SDS011;7866;52.280;9.500;2023-10-31T15:21:49;1.60;;;0.93;;
15528;SDS011;7866;52.280;9.500;2023-10-31T15:26:51;1.47;;;0.90;;
15528;SDS011;7866;52.280;9.500;2023-10-31T15:31:54;0.90;;;0.90;;
15528;SDS011;7866;52.280;9.500;2023-10-31T15:36:55;1.53;;;0.80;;
15528;SDS011;7866;52.280;9.500;2023-10-31T15:41:57;0.80;;;0.50;;
15528;SDS011;7866;52.280;9.500;2023-10-31T15:47:00;0.60;;;0.60;;
15528;SDS011;7866;52.280;9.500;2023-10-31T15:52:01;0.70;;;0.70;;
15528;SDS011;7866;52.280;9.500;2023-10-31T15:57:03;1.70;;;0.80;;
15528;SDS011;7866;52.280;9.500;2023-10-31T16:02:07;0.83;;;0.60;;
15528;SDS011;7866;52.280;9.500;2023-10-31T16:07:10;1.03;;;0.80;;
15528;SDS011;7866;52.280;9.500;2023-10-31T16:12:12;0.67;;;0.63;;
15528;SDS011;7866;52.280;9.500;2023-10-31T16:17:17;1.50;;;0.70;;
15528;SDS011;7866;52.280;9.500;2023-10-31T16:22:18;0.40;;;0.40;;
15528;SDS011;7866;52.280;9.500;2023-10-31T16:27:20;0.40;;;0.40;;
15528;SDS011;7866;52.280;9.500;2023-10-31T16:32:23;0.67;;;0.67;;
15528;SDS011;7866;52.280;9.500;2023-10-31T16:37:25;1.10;;;0.87;;
15528;SDS011;7866;52.280;9.500;2023-10-31T16:42:27;1.53;;;0.83;;
15528;SDS011;7866;52.280;9.500;2023-10-31T16:47:33;0.60;;;0.60;;
15528;SDS011;7866;52.280;9.500;2023-10-31T16:52:35;0.67;;;0.67;;
15528;SDS011;7866;52.280;9.500;2023-10-31T16:57:36;2.27;;;1.20;;
15528;SDS011;7866;52.280;9.500;2023-10-31T17:02:39;1.33;;;1.23;;
15528;SDS011;7866;52.280;9.500;2023-10-31T17:07:41;0.70;;;0.70;;
15528;SDS011;7866;52.280;9.500;2023-10-31T17:12:43;1.20;;;0.80;;
15528;SDS011;7866;52.280;9.500;2023-10-31T17:17:46;0.73;;;0.40;;
15528;SDS011;7866;52.280;9.500;2023-10-31T17:22:47;1.13;;;0.70;;
15528;SDS011;7866;52.280;9.500;2023-10-31T17:27:49;0.77;;;0.50;;
15528;SDS011;7866;52.280;9.500;2023-10-31T17:32:52;0.90;;;0.70;;
15528;SDS011;7866;52.280;9.500;2023-10-31T17:37:54;1.43;;;1.33;;
15528;SDS011;7866;52.280;9.500;2023-10-31T17:42:55;1.50;;;1.17;;
15528;SDS011;7866;52.280;9.500;2023-10-31T17:47:58;1.00;;;0.90;;
15528;SDS011;7866;52.280;9.500;2023-10-31T17:53:00;3.10;;;1.70;;
15528;SDS011;7866;52.280;9.500;2023-10-31T17:58:02;3.90;;;3.60;;
15528;SDS011;7866;52.280;9.500;2023-10-31T18:03:05;4.23;;;3.70;;
15528;SDS011;7866;52.280;9.500;2023-10-31T18:08:07;5.80;;;3.97;;
15528;SDS011;7866;52.280;9.500;2023-10-31T18:13:09;4.40;;;4.00;;
15528;SDS011;7866;52.280;9.500;2023-10-31T18:18:12;6.27;;;4.77;;
15528;SDS011;7866;52.280;9.500;2023-10-31T18:23:14;4.80;;;4.40;;
15528;SDS011;7866;52.280;9.500;2023-10-31T18:28:15;5.23;;;4.10;;
15528;SDS011;7866;52.280;9.500;2023-10-31T18:33:18;5.43;;;3.87;;
15528;SDS011;7866;52.280;9.500;2023-10-31T18:38:20;5.13;;;4.67;;
15528;SDS011;7866;52.280;9.500;2023-10-31T18:43:22;3.90;;;3.50;;
15528;SDS011;7866;52.280;9.500;2023-10-31T18:48:24;3.60;;;3.30;;
15528;SDS011;7866;52.280;9.500;2023-10-31T18:53:26;8.27;;;3.63;;
15528;SDS011;7866;52.280;9.500;2023-10-31T18:58:28;5.07;;;3.60;;
15528;SDS011;7866;52.280;9.500;2023-10-31T19:03:31;5.33;;;3.93;;
15528;SDS011;7866;52.280;9.500;2023-10-31T19:08:32;3.93;;;3.37;;
15528;SDS011;7866;52.280;9.500;2023-10-31T19:13:34;5.10;;;3.70;;
15528;SDS011;7866;52.280;9.500;2023-10-31T19:18:38;4.43;;;3.60;;
15528;SDS011;7866;52.280;9.500;2023-10-31T19:23:39;4.13;;;3.60;;
15528;SDS011;7866;52.280;9.500;2023-10-31T19:28:41;5.60;;;3.40;;
15528;SDS011;7866;52.280;9.500;2023-10-31T19:33:44;5.90;;;3.10;;
15528;SDS011;7866;52.280;9.500;2023-10-31T19:38:46;5.50;;;3.33;;
15528;SDS011;7866;52.280;9.500;2023-10-31T19:43:48;5.03;;;3.20;;
15528;SDS011;7866;52.280;9.500;2023-10-31T19:48:51;4.33;;;3.00;;
15528;SDS011;7866;52.280;9.500;2023-10-31T19:53:54;5.37;;;3.30;;
15528;SDS011;7866;52.280;9.500;2023-10-31T19:58:56;3.23;;;3.00;;
15528;SDS011;7866;52.280;9.500;2023-10-31T20:03:59;4.83;;;3.20;;
15528;SDS011;7866;52.280;9.500;2023-10-31T20:09:00;3.40;;;3.10;;
15528;SDS011;7866;52.280;9.500;2023-10-31T20:14:02;3.83;;;2.90;;
15528;SDS011;7866;52.280;9.500;2023-10-31T20:19:05;3.27;;;2.50;;
15528;SDS011;7866;52.280;9.500;2023-10-31T20:24:09;3.50;;;2.40;;
15528;SDS011;7866;52.280;9.500;2023-10-31T20:29:11;3.03;;;2.30;;
15528;SDS011;7866;52.280;9.500;2023-10-31T20:34:14;3.53;;;2.53;;
15528;SDS011;7866;52.280;9.500;2023-10-31T20:39:15;2.33;;;2.17;;
15528;SDS011;7866;52.280;9.500;2023-10-31T20:44:17;2.60;;;2.37;;
15528;SDS011;7866;52.280;9.500;2023-10-31T20:49:20;2.70;;;2.33;;
15528;SDS011;7866;52.280;9.500;2023-10-31T20:54:22;3.40;;;2.57;;
15528;SDS011;7866;52.280;9.500;2023-10-31T20:59:23;3.53;;;2.50;;
15528;SDS011;7866;52.280;9.500;2023-10-31T21:04:26;3.07;;;2.30;;
15528;SDS011;7866;52.280;9.500;2023-10-31T21:09:29;3.43;;;2.70;;
15528;SDS011;7866;52.280;9.500;2023-10-31T21:14:30;5.83;;;2.40;;
15528;SDS011;7866;52.280;9.500;2023-10-31T21:19:33;4.40;;;2.33;;
15528;SDS011;7866;52.280;9.500;2023-10-31T21:24:36;5.30;;;2.37;;
15528;SDS011;7866;52.280;9.500;2023-10-31T21:29:39;2.53;;;2.03;;
15528;SDS011;7866;52.280;9.500;2023-10-31T21:34:42;4.17;;;2.63;;
15528;SDS011;7866;52.280;9.500;2023-10-31T21:39:44;2.47;;;2.27;;
15528;SDS011;7866;52.280;9.500;2023-10-31T21:44:45;3.83;;;2.10;;
15528;SDS011;7866;52.280;9.500;2023-10-31T21:49:48;2.10;;;2.00;;
15528;SDS011;7866;52.280;9.500;2023-10-31T21:54:50;9.13;;;3.70;;
15528;SDS011;7866;52.280;9.500;2023-10-31T21:59:52;4.30;;;3.90;;
15528;SDS011;7866;52.280;9.500;2023-10-31T22:04:55;5.27;;;3.60;;
15528;SDS011;7866;52.280;9.500;2023-10-31T22:09:56;3.67;;;3.37;;
15528;SDS011;7866;52.280;9.500;2023-10-31T22:14:58;8.67;;;5.07;;
15528;SDS011;7866;52.280;9.500;2023-10-31T22:20:01;5.20;;;3.90;;
15528;SDS011;7866;52.280;9.500;2023-10-31T22:25:05;4.83;;;4.43;;
15528;SDS011;7866;52.280;9.500;2023-10-31T22:30:07;5.33;;;4.83;;
15528;SDS011;7866;52.280;9.500;2023-10-31T22:35:11;5.90;;;5.30;;
15528;SDS011;7866;52.280;9.500;2023-10-31T22:40:13;5.20;;;4.80;;
15528;SDS011;7866;52.280;9.500;2023-10-31T22:45:15;5.73;;;5.23;;
15528;SDS011;7866;52.280;9.500;2023-10-31T22:50:18;4.37;;;4.07;;
15528;SDS011;7866;52.280;9.500;2023-10-31T22:55:20;4.73;;;4.33;;
15528;SDS011;7866;52.280;9.500;2023-10-31T23:00:21;5.33;;;4.93;;
15528;SDS011;7866;52.280;9.500;2023-10-31T23:05:28;5.83;;;5.33;;
15528;SDS011;7866;52.280;9.500;2023-10-31T23:10:30;5.60;;;5.10;;
15528;SDS011;7866;52.280;9.500;2023-10-31T23:15:32;5.70;;;5.30;;
15528;SDS011;7866;52.280;9.500;2023-10-31T23:20:35;5.17;;;4.83;;
15528;SDS011;7866;52.280;9.500;2023-10-31T23:25:36;5.30;;;4.90;;
15528;SDS011;7866;52.280;9.500;2023-10-31T23:30:39;8.23;;;5.27;;
15528;SDS011;7866;52.280;9.500;2023-10-31T23:35:42;6.47;;;5.40;;
15528;SDS011;7866;52.280;9.500;2023-10-31T23:40:43;5.33;;;4.93;;
15528;SDS011;7866;52.280;9.500;2023-10-31T23:45:46;5.60;;;5.20;;
15528;SDS011;7866;52.280;9.500;2023-10-31T23:50:49;6.60;;;5.90;;
15528;SDS011;7866;52.280;9.500;2023-10-31T23:55:50;5.20;;;4.80;;
